createdAt,value
2019-04-05T00:02:22.410Z,2.43
2019-04-05T00:04:50.680Z,2.43
2019-04-05T00:07:18.931Z,2.46
2019-04-05T00:09:47.207Z,2.45
2019-04-05T00:12:15.459Z,2.46
2019-04-05T00:14:43.733Z,2.45
2019-04-05T00:17:11.994Z,2.52
2019-04-05T00:19:40.330Z,2.52
2019-04-05T00:22:08.578Z,2.47
2019-04-05T00:24:36.858Z,2.35
2019-04-05T00:27:05.167Z,2.37
2019-04-05T00:29:33.442Z,2.38
2019-04-05T00:32:01.747Z,2.39
2019-04-05T00:34:30.017Z,2.41
2019-04-05T00:36:58.262Z,2.38
2019-04-05T00:39:26.553Z,2.44
2019-04-05T00:41:54.816Z,2.49
2019-04-05T00:44:23.095Z,2.45
2019-04-05T00:46:51.341Z,2.47
2019-04-05T00:49:19.616Z,2.42
2019-04-05T00:51:47.894Z,2.39
2019-04-05T00:54:16.168Z,2.43
2019-04-05T00:56:44.417Z,2.40
2019-04-05T00:59:12.805Z,2.42
2019-04-05T01:01:41.061Z,2.50
2019-04-05T01:04:09.404Z,2.45
2019-04-05T01:06:38.655Z,2.42
2019-04-05T01:09:07.840Z,2.46
2019-04-05T01:11:36.090Z,2.58
2019-04-05T01:14:04.362Z,2.51
2019-04-05T01:16:32.627Z,2.47
2019-04-05T01:19:03.871Z,2.48
2019-04-05T01:21:36.803Z,2.48
2019-04-05T01:24:05.040Z,2.49
2019-04-05T01:26:33.307Z,2.49
2019-04-05T01:29:02.577Z,2.55
2019-04-05T01:31:30.846Z,2.60
2019-04-05T01:33:59.098Z,2.62
2019-04-05T01:36:27.365Z,2.57
2019-04-05T01:38:55.619Z,2.54
2019-04-05T01:41:23.936Z,2.49
2019-04-05T01:43:52.211Z,2.40
2019-04-05T01:46:20.483Z,2.36
2019-04-05T01:48:48.721Z,2.48
2019-04-05T01:51:16.989Z,2.45
2019-04-05T01:53:45.307Z,2.49
2019-04-05T01:56:13.583Z,2.53
2019-04-05T01:58:41.825Z,2.57
2019-04-05T02:01:10.101Z,2.54
2019-04-05T02:03:38.349Z,2.54
2019-04-05T02:06:06.616Z,2.60
2019-04-05T02:08:34.882Z,2.69
2019-04-05T02:11:03.176Z,2.74
2019-04-05T02:13:31.430Z,2.73
2019-04-05T02:16:06.327Z,2.71
2019-04-05T02:18:30.359Z,2.66
2019-04-05T02:20:58.637Z,2.66
2019-04-05T02:23:26.885Z,2.66
2019-04-05T02:25:55.161Z,2.52
2019-04-05T02:28:25.487Z,2.32
2019-04-05T02:30:53.413Z,2.32
2019-04-05T02:33:21.668Z,2.41
2019-04-05T02:35:49.941Z,2.45
2019-04-05T02:38:18.197Z,2.37
2019-04-05T02:40:46.464Z,2.40
2019-04-05T02:43:14.712Z,2.47
2019-04-05T02:45:42.961Z,2.35
2019-04-05T02:48:11.235Z,2.32
2019-04-05T02:50:41.289Z,2.36
2019-04-05T02:53:09.575Z,2.47
2019-04-05T02:55:38.955Z,2.48
2019-04-05T02:58:07.251Z,2.50
2019-04-05T03:00:35.514Z,2.51
2019-04-05T03:03:04.182Z,2.43
2019-04-05T03:05:32.413Z,2.42
2019-04-05T03:08:00.706Z,2.24
2019-04-05T03:11:05.616Z,2.31
2019-04-05T03:13:36.059Z,2.38
2019-04-05T03:16:06.843Z,2.23
2019-04-05T03:18:38.756Z,2.21
2019-04-05T03:21:07.780Z,2.13
2019-04-05T03:23:39.279Z,2.15
2019-04-05T03:26:08.935Z,2.17
2019-04-05T03:28:37.987Z,2.11
2019-04-05T03:31:06.267Z,2.07
2019-04-05T03:33:34.586Z,1.97
2019-04-05T03:36:02.890Z,1.90
2019-04-05T03:38:31.373Z,1.92
2019-04-05T03:40:59.643Z,1.99
2019-04-05T03:43:27.904Z,1.93
2019-04-05T03:45:56.168Z,1.89
2019-04-05T03:48:24.446Z,1.86
2019-04-05T03:50:52.707Z,1.92
2019-04-05T03:53:21.065Z,1.89
2019-04-05T03:55:49.478Z,1.82
2019-04-05T03:58:17.763Z,1.88
2019-04-05T04:00:46.091Z,1.78
2019-04-05T04:03:14.388Z,1.74
2019-04-05T04:05:42.644Z,1.87
2019-04-05T04:08:10.932Z,1.88
2019-04-05T04:10:39.186Z,1.77
2019-04-05T04:13:07.554Z,1.88
2019-04-05T04:15:35.805Z,2.01
2019-04-05T04:18:04.074Z,2.11
2019-04-05T04:20:46.838Z,2.16
2019-04-05T04:23:15.122Z,2.13
2019-04-05T04:25:43.461Z,2.09
2019-04-05T04:28:11.758Z,2.05
2019-04-05T04:30:40.074Z,2.03
2019-04-05T04:33:16.709Z,2.02
2019-04-05T04:35:44.953Z,2.07
2019-04-05T04:38:13.236Z,2.10
2019-04-05T04:40:41.786Z,2.23
2019-04-05T04:43:10.608Z,2.25
2019-04-05T04:45:38.864Z,2.28
2019-04-05T04:48:07.160Z,2.17
2019-04-05T04:50:35.406Z,2.22
2019-04-05T04:53:03.680Z,2.32
2019-04-05T04:55:31.942Z,2.34
2019-04-05T04:58:00.211Z,2.34
2019-04-05T05:00:28.461Z,2.29
2019-04-05T05:02:56.736Z,2.29
2019-04-05T05:05:25.230Z,2.32
2019-04-05T05:07:53.578Z,2.28
2019-04-05T05:10:21.834Z,2.39
2019-04-05T05:12:50.142Z,2.51
2019-04-05T05:15:18.426Z,2.59
2019-04-05T05:17:58.089Z,2.61
2019-04-05T05:20:16.661Z,2.57
2019-04-05T05:22:44.914Z,2.60
2019-04-05T05:25:15.375Z,2.62
2019-04-05T05:27:43.585Z,2.60
2019-04-05T05:30:12.118Z,2.50
2019-04-05T05:32:40.433Z,2.44
2019-04-05T05:35:08.702Z,2.44
2019-04-05T05:37:36.956Z,2.50
2019-04-05T05:40:06.851Z,2.54
2019-04-05T05:42:35.099Z,2.56
2019-04-05T05:45:04.603Z,2.60
2019-04-05T05:47:32.844Z,2.65
2019-04-05T05:50:01.143Z,2.74
2019-04-05T05:52:29.478Z,2.78
2019-04-05T05:54:57.817Z,2.77
2019-04-05T05:57:26.425Z,2.79
2019-04-05T05:59:54.842Z,2.80
2019-04-05T06:02:23.104Z,2.81
2019-04-05T06:04:51.381Z,2.82
2019-04-05T06:07:20.198Z,2.87
2019-04-05T06:09:48.500Z,2.93
2019-04-05T06:12:16.751Z,2.95
2019-04-05T06:14:45.177Z,2.95
2019-04-05T06:17:14.256Z,2.97
2019-04-05T06:19:42.585Z,3.00
2019-04-05T06:22:10.851Z,3.04
2019-04-05T06:24:39.149Z,3.08
2019-04-05T06:27:07.503Z,3.14
2019-04-05T06:29:35.792Z,3.18
2019-04-05T06:32:04.148Z,3.28
2019-04-05T06:34:32.455Z,3.36
2019-04-05T06:37:00.716Z,3.46
2019-04-05T06:39:28.974Z,3.53
2019-04-05T06:41:57.350Z,3.58
2019-04-05T06:44:27.960Z,3.59
2019-04-05T06:46:57.275Z,3.65
2019-04-05T06:49:25.606Z,3.64
2019-04-05T06:51:53.882Z,3.58
2019-04-05T06:54:22.173Z,3.62
2019-04-05T06:56:50.462Z,3.72
2019-04-05T06:59:19.430Z,3.79
2019-04-05T07:01:47.955Z,3.84
2019-04-05T07:04:16.224Z,3.90
2019-04-05T07:06:44.518Z,3.86
2019-04-05T07:09:12.972Z,3.95
2019-04-05T07:11:41.290Z,4.04
2019-04-05T07:14:09.549Z,4.19
2019-04-05T07:16:37.817Z,4.22
2019-04-05T07:19:06.085Z,4.17
2019-04-05T07:21:34.479Z,4.15
2019-04-05T07:24:02.799Z,4.27
2019-04-05T07:26:31.089Z,4.27
2019-04-05T07:28:59.403Z,4.27
2019-04-05T07:31:27.745Z,4.36
2019-04-05T07:33:56.341Z,4.45
2019-04-05T07:36:24.831Z,4.53
2019-04-05T07:38:53.163Z,4.54
2019-04-05T07:41:21.471Z,4.63
2019-04-05T07:43:49.987Z,4.68
2019-04-05T07:46:18.341Z,4.88
2019-04-05T07:48:46.639Z,5.02
2019-04-05T07:51:14.931Z,5.17
2019-04-05T07:53:44.699Z,5.24
2019-04-05T07:56:12.974Z,5.20
2019-04-05T07:58:41.231Z,5.27
2019-04-05T08:01:09.583Z,5.49
2019-04-05T08:03:37.914Z,5.44
2019-04-05T08:06:06.188Z,5.51
2019-04-05T08:08:43.609Z,5.60
2019-04-05T08:11:11.907Z,5.66
2019-04-05T08:13:40.806Z,5.85
2019-04-05T08:16:09.097Z,6.01
2019-04-05T08:18:37.362Z,6.12
2019-04-05T08:21:05.623Z,6.21
2019-04-05T08:23:33.981Z,6.12
2019-04-05T08:26:02.321Z,6.16
2019-04-05T08:28:30.668Z,6.23
2019-04-05T08:30:58.998Z,6.32
2019-04-05T08:33:33.065Z,6.34
2019-04-05T08:36:01.312Z,6.30
2019-04-05T08:38:29.598Z,6.22
2019-04-05T08:40:57.851Z,6.17
2019-04-05T08:43:26.195Z,6.18
2019-04-05T08:45:56.523Z,6.06
2019-04-05T08:48:25.002Z,6.12
2019-04-05T08:50:53.271Z,6.19
2019-04-05T08:53:21.626Z,6.36
2019-04-05T08:55:50.000Z,6.45
2019-04-05T08:58:18.363Z,6.44
2019-04-05T09:00:46.769Z,6.55
2019-04-05T09:03:15.052Z,6.63
2019-04-05T09:05:43.379Z,6.64
2019-04-05T09:08:11.698Z,6.51
2019-04-05T09:10:39.960Z,6.52
2019-04-05T09:13:08.447Z,6.49
2019-04-05T09:15:36.704Z,6.24
2019-04-05T09:18:04.973Z,6.18
2019-04-05T09:20:33.204Z,6.24
2019-04-05T09:23:01.563Z,6.32
2019-04-05T09:25:29.810Z,6.47
2019-04-05T09:27:58.101Z,6.50
2019-04-05T09:30:26.346Z,6.65
2019-04-05T09:32:54.695Z,6.71
2019-04-05T09:35:23.152Z,6.84
2019-04-05T09:37:51.435Z,6.68
2019-04-05T09:40:21.147Z,6.77
2019-04-05T09:42:49.632Z,6.84
2019-04-05T09:45:17.915Z,6.80
2019-04-05T09:47:46.158Z,6.77
2019-04-05T09:50:14.438Z,6.66
2019-04-05T09:52:42.714Z,6.78
2019-04-05T09:55:10.998Z,6.78
2019-04-05T09:57:39.244Z,6.93
2019-04-05T10:00:09.709Z,7.02
2019-04-05T10:02:46.236Z,7.01
2019-04-05T10:05:14.523Z,7.13
2019-04-05T10:07:54.100Z,7.21
2019-04-05T10:10:12.772Z,7.26
2019-04-05T10:12:41.015Z,7.10
2019-04-05T10:15:09.315Z,7.21
2019-04-05T10:17:37.584Z,7.27
2019-04-05T10:20:08.747Z,7.22
2019-04-05T10:22:37.001Z,7.28
2019-04-05T10:25:08.227Z,7.42
2019-04-05T10:27:36.499Z,7.36
2019-04-05T10:30:12.300Z,7.25
2019-04-05T10:32:40.566Z,7.24
2019-04-05T10:35:08.849Z,7.39
2019-04-05T10:37:37.860Z,7.33
2019-04-05T10:40:07.148Z,7.52
2019-04-05T10:42:36.438Z,7.45
2019-04-05T10:45:09.299Z,7.34
2019-04-05T10:47:37.542Z,7.33
2019-04-05T10:50:10.708Z,7.27
2019-04-05T10:52:38.967Z,7.34
2019-04-05T10:55:07.743Z,7.25
2019-04-05T10:57:36.029Z,7.34
2019-04-05T11:00:07.116Z,7.40
2019-04-05T11:02:35.359Z,7.31
2019-04-05T11:05:04.001Z,7.30
2019-04-05T11:07:34.923Z,7.35
2019-04-05T11:10:02.349Z,7.29
2019-04-05T11:12:30.598Z,7.19
2019-04-05T11:14:58.951Z,7.21
2019-04-05T11:17:27.227Z,7.26
2019-04-05T11:19:55.518Z,7.35
2019-04-05T11:22:23.810Z,7.51
2019-04-05T11:24:52.172Z,7.46
2019-04-05T11:27:20.691Z,7.61
2019-04-05T11:29:48.938Z,7.49
2019-04-05T11:32:17.225Z,7.37
2019-04-05T11:34:45.488Z,7.53
2019-04-05T11:37:13.770Z,7.69
2019-04-05T11:39:42.032Z,7.75
2019-04-05T11:42:10.427Z,7.75
2019-04-05T11:44:38.686Z,7.87
2019-04-05T11:47:06.962Z,8.06
2019-04-05T11:49:35.212Z,8.20
2019-04-05T11:52:03.512Z,8.04
2019-04-05T11:54:31.802Z,8.00
2019-04-05T11:57:00.088Z,8.25
2019-04-05T11:59:28.362Z,8.38
2019-04-05T12:01:58.391Z,8.74
2019-04-05T12:04:26.650Z,8.61
2019-04-05T12:06:54.993Z,8.86
2019-04-05T12:09:23.252Z,8.98
2019-04-05T12:11:51.534Z,8.97
2019-04-05T12:14:29.701Z,9.06
2019-04-05T12:16:49.777Z,9.18
2019-04-05T12:19:18.035Z,9.14
2019-04-05T12:21:46.456Z,9.01
2019-04-05T12:24:14.732Z,8.97
2019-04-05T12:26:43.074Z,9.13
2019-04-05T12:29:11.397Z,8.89
2019-04-05T12:31:39.686Z,8.91
2019-04-05T12:34:08.009Z,9.08
2019-04-05T12:36:36.285Z,8.96
2019-04-05T12:39:08.225Z,8.91
2019-04-05T12:41:40.400Z,9.06
2019-04-05T12:44:06.753Z,8.85
2019-04-05T12:46:35.118Z,9.03
2019-04-05T12:49:03.408Z,9.34
2019-04-05T12:51:31.684Z,9.25
2019-04-05T12:53:59.960Z,9.37
2019-04-05T12:56:28.246Z,9.45
2019-04-05T12:58:56.748Z,9.51
2019-04-05T13:01:25.119Z,9.54
2019-04-05T13:03:53.483Z,9.39
2019-04-05T13:06:22.714Z,9.55
2019-04-05T13:08:51.519Z,9.53
2019-04-05T13:11:19.928Z,9.57
2019-04-05T13:13:48.220Z,9.81
2019-04-05T13:16:16.480Z,9.94
2019-04-05T13:18:44.758Z,9.98
2019-04-05T13:21:15.685Z,9.87
2019-04-05T13:23:43.188Z,9.75
2019-04-05T13:26:12.411Z,9.60
2019-04-05T13:28:40.866Z,9.63
2019-04-05T13:31:09.238Z,9.59
2019-04-05T13:33:37.549Z,9.68
2019-04-05T13:36:08.318Z,9.70
2019-04-05T13:38:35.959Z,9.78
2019-04-05T13:41:04.269Z,9.47
2019-04-05T13:43:32.763Z,9.61
2019-04-05T13:46:06.935Z,9.46
2019-04-05T13:48:35.256Z,9.37
2019-04-05T13:51:03.516Z,9.39
2019-04-05T13:53:31.839Z,9.52
2019-04-05T13:56:00.217Z,9.56
2019-04-05T13:58:28.750Z,9.48
2019-04-05T14:00:57.026Z,9.46
2019-04-05T14:03:25.293Z,9.45
2019-04-05T14:05:55.258Z,9.67
2019-04-05T14:08:23.954Z,9.55
2019-04-05T14:10:52.207Z,9.66
2019-04-05T14:13:20.538Z,9.80
2019-04-05T14:15:48.812Z,9.80
2019-04-05T14:18:17.103Z,9.90
2019-04-05T14:20:45.436Z,9.68
2019-04-05T14:23:13.787Z,9.46
2019-04-05T14:25:42.115Z,9.50
2019-04-05T14:28:10.409Z,9.55
2019-04-05T14:30:38.692Z,9.56
2019-04-05T14:33:06.996Z,9.48
2019-04-05T14:35:35.269Z,9.62
2019-04-05T14:38:03.599Z,9.73
2019-04-05T14:40:33.141Z,9.54
2019-04-05T14:43:01.495Z,9.40
2019-04-05T14:45:29.782Z,9.60
2019-04-05T14:47:58.630Z,9.76
2019-04-05T14:50:28.216Z,9.88
2019-04-05T14:53:00.786Z,9.89
2019-04-05T14:55:27.629Z,9.87
2019-04-05T14:57:57.324Z,10.02
2019-04-05T15:00:25.628Z,9.80
2019-04-05T15:02:53.892Z,9.66
2019-04-05T15:05:22.223Z,9.64
2019-04-05T15:07:51.168Z,9.71
2019-04-05T15:10:20.109Z,9.42
2019-04-05T15:12:48.398Z,9.35
2019-04-05T15:15:16.698Z,9.25
2019-04-05T15:17:48.173Z,9.32
2019-04-05T15:20:15.327Z,9.33
2019-04-05T15:22:43.597Z,9.46
2019-04-05T15:25:11.981Z,9.38
2019-04-05T15:27:40.388Z,9.26
2019-04-05T15:30:08.715Z,9.43
2019-04-05T15:32:37.848Z,9.54
2019-04-05T15:35:07.851Z,9.61
2019-04-05T15:37:37.729Z,9.45
2019-04-05T15:40:07.646Z,9.33
2019-04-05T15:42:35.997Z,9.18
2019-04-05T15:45:06.722Z,9.13
2019-04-05T15:47:35.020Z,9.08
2019-04-05T15:50:03.547Z,9.05
2019-04-05T15:52:32.187Z,8.93
2019-04-05T15:55:01.751Z,8.99
2019-04-05T15:57:33.459Z,8.91
2019-04-05T16:00:03.683Z,8.90
2019-04-05T16:02:33.009Z,8.93
2019-04-05T16:05:00.548Z,8.95
2019-04-05T16:07:28.823Z,8.88
2019-04-05T16:09:57.669Z,8.87
2019-04-05T16:12:26.081Z,8.91
2019-04-05T16:14:54.371Z,8.85
2019-04-05T16:17:22.806Z,8.90
2019-04-05T16:19:51.103Z,8.95
2019-04-05T16:22:30.785Z,8.95
2019-04-05T16:24:49.398Z,8.92
2019-04-05T16:27:17.687Z,8.79
2019-04-05T16:29:45.951Z,8.64
2019-04-05T16:32:14.937Z,8.59
2019-04-05T16:34:43.190Z,8.52
2019-04-05T16:37:11.481Z,8.50
2019-04-05T16:39:39.746Z,8.51
2019-04-05T16:42:10.178Z,8.52
2019-04-05T16:44:38.019Z,8.55
2019-04-05T16:47:06.386Z,8.53
2019-04-05T16:49:34.715Z,8.55
2019-04-05T16:52:03.008Z,8.53
2019-04-05T16:54:31.270Z,8.52
2019-04-05T16:56:59.550Z,8.53
2019-04-05T16:59:27.871Z,8.54
2019-04-05T17:01:56.869Z,8.53
2019-04-05T17:04:25.237Z,8.53
2019-04-05T17:06:53.497Z,8.53
2019-04-05T17:09:21.761Z,8.49
2019-04-05T17:11:50.027Z,8.47
2019-04-05T17:14:19.246Z,8.49
2019-04-05T17:16:47.531Z,8.49
2019-04-05T17:19:15.799Z,8.42
2019-04-05T17:21:44.060Z,8.43
2019-04-05T17:24:12.349Z,8.44
2019-04-05T17:26:40.620Z,8.47
2019-04-05T17:29:09.464Z,8.47
2019-04-05T17:31:37.722Z,8.42
2019-04-05T17:34:05.992Z,8.42
2019-04-05T17:36:34.249Z,8.25
2019-04-05T17:39:02.535Z,8.15
2019-04-05T17:41:30.864Z,8.16
2019-04-05T17:43:59.265Z,8.07
2019-04-05T17:46:27.509Z,8.09
2019-04-05T17:48:55.788Z,8.09
2019-04-05T17:51:24.028Z,8.14
2019-04-05T17:53:52.417Z,8.14
2019-04-05T17:56:20.672Z,8.06
2019-04-05T17:58:49.610Z,8.05
2019-04-05T18:01:17.899Z,7.99
2019-04-05T18:03:46.193Z,7.97
2019-04-05T18:06:14.475Z,7.88
2019-04-05T18:08:48.577Z,7.87
2019-04-05T18:11:16.827Z,7.87
2019-04-05T18:13:45.098Z,7.86
2019-04-05T18:16:13.379Z,7.89
2019-04-05T18:18:41.743Z,7.85
2019-04-05T18:21:09.991Z,7.85
2019-04-05T18:23:38.308Z,7.81
2019-04-05T18:26:06.578Z,7.73
2019-04-05T18:28:35.988Z,7.58
2019-04-05T18:31:05.871Z,7.55
2019-04-05T18:33:34.101Z,7.53
2019-04-05T18:36:02.349Z,7.48
2019-04-05T18:38:30.606Z,7.37
2019-04-05T18:40:58.983Z,7.35
2019-04-05T18:43:27.233Z,7.39
2019-04-05T18:45:55.578Z,7.42
2019-04-05T18:48:24.409Z,7.38
2019-04-05T18:50:52.701Z,7.32
2019-04-05T18:53:21.032Z,7.27
2019-04-05T18:55:49.333Z,7.25
2019-04-05T18:58:17.601Z,7.24
2019-04-05T19:00:45.939Z,7.20
2019-04-05T19:03:14.188Z,7.19
2019-04-05T19:05:42.503Z,7.19
2019-04-05T19:08:10.840Z,7.13
2019-04-05T19:10:39.137Z,7.12
2019-04-05T19:13:07.402Z,7.06
2019-04-05T19:15:35.672Z,7.12
2019-04-05T19:18:03.926Z,7.07
2019-04-05T19:20:32.200Z,7.00
2019-04-05T19:23:00.455Z,6.96
2019-04-05T19:25:28.766Z,6.97
2019-04-05T19:27:57.026Z,6.94
2019-04-05T19:50:25.352Z,6.90
2019-04-05T19:52:53.607Z,6.94
2019-04-05T19:55:21.960Z,7.00
2019-04-05T19:57:50.220Z,7.03
2019-04-05T20:00:19.176Z,7.05
2019-04-05T20:02:47.450Z,7.00
2019-04-05T20:05:15.730Z,7.00
2019-04-05T20:07:43.992Z,6.91
2019-04-05T20:10:12.267Z,6.89
2019-04-05T20:12:40.526Z,7.02
2019-04-05T20:15:08.808Z,7.16
2019-04-05T20:17:37.060Z,7.12
2019-04-05T20:20:08.356Z,7.25
2019-04-05T20:22:36.645Z,7.25
2019-04-05T20:25:07.887Z,7.23
2019-04-05T20:27:36.174Z,7.21
2019-04-05T20:30:06.634Z,7.13
2019-04-05T20:32:34.974Z,7.11
2019-04-05T20:35:03.245Z,7.13
2019-04-05T20:37:31.519Z,7.13
2019-04-05T20:39:59.844Z,7.16
2019-04-05T20:42:28.202Z,7.17
2019-04-05T20:44:56.451Z,7.16
2019-04-05T20:47:24.725Z,7.21
2019-04-05T20:50:01.910Z,7.17
2019-04-05T20:52:30.164Z,7.25
2019-04-05T20:54:58.425Z,7.25
2019-04-05T20:57:26.731Z,7.24
2019-04-05T20:59:55.060Z,7.15
2019-04-05T21:02:23.414Z,7.13
2019-04-05T21:04:51.669Z,7.15
2019-04-05T21:07:19.938Z,7.14
2019-04-05T21:09:48.589Z,7.11
2019-04-05T21:12:16.886Z,7.04
2019-04-05T21:14:45.151Z,7.03
2019-04-05T21:17:13.421Z,7.02
2019-04-05T21:19:41.673Z,7.03
2019-04-05T21:22:10.031Z,6.88
2019-04-05T21:24:38.285Z,6.69
2019-04-05T21:27:06.558Z,6.64
2019-04-05T21:29:34.812Z,6.69
2019-04-05T21:32:03.167Z,6.72
2019-04-05T21:34:31.494Z,6.63
2019-04-05T21:36:59.778Z,6.59
2019-04-05T21:39:28.864Z,6.58
2019-04-05T21:41:57.129Z,6.46
2019-04-05T21:44:25.393Z,6.48
2019-04-05T21:46:53.668Z,6.37
2019-04-05T21:49:21.932Z,6.39
2019-04-05T21:51:50.212Z,6.42
2019-04-05T21:54:18.461Z,6.36
2019-04-05T21:56:46.721Z,6.36
2019-04-05T21:59:15.013Z,6.34
2019-04-05T22:01:43.266Z,6.35
2019-04-05T22:04:11.550Z,6.28
2019-04-05T22:06:39.812Z,6.28
2019-04-05T22:09:12.317Z,6.30
2019-04-05T22:11:40.584Z,6.26
2019-04-05T22:14:08.858Z,6.25
2019-04-05T22:16:37.110Z,6.28
2019-04-05T22:19:05.449Z,6.32
2019-04-05T22:21:33.713Z,6.26
2019-04-05T22:24:01.986Z,6.23
2019-04-05T22:26:30.384Z,6.26
2019-04-05T22:28:58.657Z,6.24
2019-04-05T22:31:26.911Z,6.20
2019-04-05T22:33:55.227Z,6.19
2019-04-05T22:36:23.488Z,6.13
2019-04-05T22:38:51.759Z,6.12
2019-04-05T22:41:20.009Z,6.06
2019-04-05T22:43:48.297Z,6.07
2019-04-05T22:46:16.555Z,6.09
2019-04-05T22:48:44.836Z,6.08
2019-04-05T22:51:13.093Z,6.08
2019-04-05T22:53:41.370Z,6.00
2019-04-05T22:56:10.556Z,5.98
2019-04-05T22:58:38.837Z,5.96
2019-04-05T23:01:07.103Z,5.96
2019-04-05T23:03:35.385Z,5.91
2019-04-05T23:06:03.662Z,5.84
2019-04-05T23:08:31.949Z,5.78
2019-04-05T23:11:00.203Z,5.79
2019-04-05T23:13:28.486Z,5.73
2019-04-05T23:15:56.745Z,5.66
2019-04-05T23:18:25.032Z,5.58
2019-04-05T23:20:53.276Z,5.45
2019-04-05T23:23:21.553Z,5.37
2019-04-05T23:25:49.873Z,5.37
2019-04-05T23:28:18.149Z,5.34
2019-04-05T23:30:46.417Z,5.23
2019-04-05T23:33:14.689Z,5.17
2019-04-05T23:35:42.935Z,5.15
2019-04-05T23:38:11.219Z,5.08
2019-04-05T23:40:39.486Z,5.03
2019-04-05T23:43:07.761Z,5.04
2019-04-05T23:45:36.030Z,4.98
2019-04-05T23:48:04.278Z,4.92
2019-04-05T23:50:32.572Z,4.91
2019-04-05T23:53:00.827Z,4.88
2019-04-05T23:55:33.449Z,4.83
2019-04-05T23:57:59.730Z,4.78
